sensor_id;sensor_type;location;lat;lon;timestamp;P1;durP1;ratioP1;P2;durP2;ratioP2
61104;SDS011;46987;32.638;-115.438;2022-08-06T00:02:26;7.82;;;1.90;;
61104;SDS011;46987;32.638;-115.438;2022-08-06T00:04:56;6.55;;;1.50;;
61104;SDS011;46987;32.638;-115.438;2022-08-06T00:07:26;4.78;;;1.25;;
61104;SDS011;46987;32.638;-115.438;2022-08-06T00:09:53;8.35;;;1.35;;
61104;SDS011;46987;32.638;-115.438;2022-08-06T00:12:21;10.60;;;1.77;;
61104;SDS011;46987;32.638;-115.438;2022-08-06T00:14:48;5.85;;;1.27;;
61104;SDS011;46987;32.638;-115.438;2022-08-06T00:17:15;6.10;;;1.58;;
61104;SDS011;46987;32.638;-115.438;2022-08-06T00:19:45;9.43;;;2.08;;
61104;SDS011;46987;32.638;-115.438;2022-08-06T00:22:13;5.20;;;1.17;;
61104;SDS011;46987;32.638;-115.438;2022-08-06T00:24:42;6.40;;;1.40;;
61104;SDS011;46987;32.638;-115.438;2022-08-06T00:27:09;7.47;;;1.88;;
61104;SDS011;46987;32.638;-115.438;2022-08-06T00:29:37;6.32;;;1.50;;
61104;SDS011;46987;32.638;-115.438;2022-08-06T00:32:04;11.93;;;1.73;;
61104;SDS011;46987;32.638;-115.438;2022-08-06T00:34:32;7.32;;;1.67;;
61104;SDS011;46987;32.638;-115.438;2022-08-06T00:36:59;6.95;;;1.80;;
61104;SDS011;46987;32.638;-115.438;2022-08-06T00:39:27;5.22;;;1.50;;
61104;SDS011;46987;32.638;-115.438;2022-08-06T00:41:56;11.45;;;1.65;;
61104;SDS011;46987;32.638;-115.438;2022-08-06T00:44:24;8.68;;;1.58;;
61104;SDS011;46987;32.638;-115.438;2022-08-06T00:46:51;7.22;;;1.50;;
61104;SDS011;46987;32.638;-115.438;2022-08-06T00:49:19;5.38;;;1.70;;
61104;SDS011;46987;32.638;-115.438;2022-08-06T00:51:46;6.63;;;1.77;;
61104;SDS011;46987;32.638;-115.438;2022-08-06T00:54:14;8.75;;;1.80;;
61104;SDS011;46987;32.638;-115.438;2022-08-06T00:56:41;7.53;;;1.73;;
61104;SDS011;46987;32.638;-115.438;2022-08-06T00:59:10;6.32;;;1.60;;
61104;SDS011;46987;32.638;-115.438;2022-08-06T01:01:37;5.15;;;1.75;;
61104;SDS011;46987;32.638;-115.438;2022-08-06T01:04:04;5.53;;;1.67;;
61104;SDS011;46987;32.638;-115.438;2022-08-06T01:06:32;6.93;;;1.50;;
61104;SDS011;46987;32.638;-115.438;2022-08-06T01:08:59;5.38;;;1.70;;
61104;SDS011;46987;32.638;-115.438;2022-08-06T01:11:26;8.07;;;1.83;;
61104;SDS011;46987;32.638;-115.438;2022-08-06T01:13:55;6.75;;;1.88;;
61104;SDS011;46987;32.638;-115.438;2022-08-06T01:16:25;6.13;;;2.10;;
61104;SDS011;46987;32.638;-115.438;2022-08-06T01:19:00;6.22;;;1.52;;
61104;SDS011;46987;32.638;-115.438;2022-08-06T01:24:37;7.05;;;1.85;;
61104;SDS011;46987;32.638;-115.438;2022-08-06T01:30:16;9.80;;;1.58;;
61104;SDS011;46987;32.638;-115.438;2022-08-06T01:32:46;8.48;;;1.50;;
61104;SDS011;46987;32.638;-115.438;2022-08-06T01:35:18;6.50;;;2.10;;
61104;SDS011;46987;32.638;-115.438;2022-08-06T01:37:50;5.90;;;2.00;;
61104;SDS011;46987;32.638;-115.438;2022-08-06T01:40:22;8.57;;;1.58;;
61104;SDS011;46987;32.638;-115.438;2022-08-06T01:42:54;7.13;;;1.75;;
61104;SDS011;46987;32.638;-115.438;2022-08-06T01:45:23;7.28;;;1.75;;
61104;SDS011;46987;32.638;-115.438;2022-08-06T01:47:55;8.93;;;1.83;;
61104;SDS011;46987;32.638;-115.438;2022-08-06T01:50:27;6.75;;;1.65;;
61104;SDS011;46987;32.638;-115.438;2022-08-06T01:52:58;4.47;;;1.80;;
61104;SDS011;46987;32.638;-115.438;2022-08-06T01:55:31;6.35;;;1.52;;
61104;SDS011;46987;32.638;-115.438;2022-08-06T01:58:06;7.43;;;1.70;;
61104;SDS011;46987;32.638;-115.438;2022-08-06T02:00:37;5.18;;;1.52;;
61104;SDS011;46987;32.638;-115.438;2022-08-06T02:03:10;8.43;;;1.75;;
61104;SDS011;46987;32.638;-115.438;2022-08-06T02:05:40;6.40;;;1.60;;
61104;SDS011;46987;32.638;-115.438;2022-08-06T02:08:09;12.75;;;3.28;;
61104;SDS011;46987;32.638;-115.438;2022-08-06T02:10:40;6.73;;;1.90;;
61104;SDS011;46987;32.638;-115.438;2022-08-06T02:13:14;12.52;;;2.38;;
61104;SDS011;46987;32.638;-115.438;2022-08-06T02:15:43;11.35;;;2.42;;
61104;SDS011;46987;32.638;-115.438;2022-08-06T02:18:12;8.15;;;1.63;;
61104;SDS011;46987;32.638;-115.438;2022-08-06T02:20:41;8.50;;;1.77;;
61104;SDS011;46987;32.638;-115.438;2022-08-06T02:23:13;8.30;;;1.88;;
61104;SDS011;46987;32.638;-115.438;2022-08-06T02:25:43;27.35;;;5.32;;
61104;SDS011;46987;32.638;-115.438;2022-08-06T02:28:14;11.27;;;1.80;;
61104;SDS011;46987;32.638;-115.438;2022-08-06T02:30:45;7.38;;;1.58;;
61104;SDS011;46987;32.638;-115.438;2022-08-06T02:33:14;4.57;;;1.40;;
61104;SDS011;46987;32.638;-115.438;2022-08-06T02:35:44;8.35;;;1.98;;
61104;SDS011;46987;32.638;-115.438;2022-08-06T02:38:19;7.55;;;2.20;;
61104;SDS011;46987;32.638;-115.438;2022-08-06T02:40:53;7.68;;;2.17;;
61104;SDS011;46987;32.638;-115.438;2022-08-06T02:43:36;5.90;;;1.73;;
61104;SDS011;46987;32.638;-115.438;2022-08-06T02:46:10;10.73;;;2.17;;
61104;SDS011;46987;32.638;-115.438;2022-08-06T02:48:42;7.72;;;2.40;;
61104;SDS011;46987;32.638;-115.438;2022-08-06T02:51:16;7.60;;;1.75;;
61104;SDS011;46987;32.638;-115.438;2022-08-06T02:53:51;6.25;;;1.80;;
61104;SDS011;46987;32.638;-115.438;2022-08-06T02:56:24;10.52;;;2.55;;
61104;SDS011;46987;32.638;-115.438;2022-08-06T02:58:55;5.63;;;1.50;;
61104;SDS011;46987;32.638;-115.438;2022-08-06T03:01:27;6.47;;;1.77;;
61104;SDS011;46987;32.638;-115.438;2022-08-06T03:03:57;7.82;;;1.90;;
61104;SDS011;46987;32.638;-115.438;2022-08-06T03:09:08;9.50;;;1.88;;
61104;SDS011;46987;32.638;-115.438;2022-08-06T03:11:37;8.98;;;1.80;;
61104;SDS011;46987;32.638;-115.438;2022-08-06T03:14:08;8.57;;;1.63;;
61104;SDS011;46987;32.638;-115.438;2022-08-06T03:19:05;13.38;;;1.77;;
61104;SDS011;46987;32.638;-115.438;2022-08-06T03:21:35;6.20;;;1.60;;
61104;SDS011;46987;32.638;-115.438;2022-08-06T03:24:05;7.22;;;1.45;;
61104;SDS011;46987;32.638;-115.438;2022-08-06T03:26:34;8.55;;;1.65;;
61104;SDS011;46987;32.638;-115.438;2022-08-06T03:29:02;7.55;;;1.92;;
61104;SDS011;46987;32.638;-115.438;2022-08-06T03:31:32;8.35;;;1.58;;
61104;SDS011;46987;32.638;-115.438;2022-08-06T03:34:03;7.90;;;1.92;;
61104;SDS011;46987;32.638;-115.438;2022-08-06T03:36:34;5.70;;;1.55;;
61104;SDS011;46987;32.638;-115.438;2022-08-06T03:39:02;7.10;;;2.10;;
61104;SDS011;46987;32.638;-115.438;2022-08-06T03:41:33;11.20;;;2.28;;
61104;SDS011;46987;32.638;-115.438;2022-08-06T03:44:03;9.73;;;2.38;;
61104;SDS011;46987;32.638;-115.438;2022-08-06T03:46:34;10.57;;;1.95;;
61104;SDS011;46987;32.638;-115.438;2022-08-06T03:49:04;12.35;;;2.72;;
61104;SDS011;46987;32.638;-115.438;2022-08-06T03:51:35;7.78;;;1.95;;
61104;SDS011;46987;32.638;-115.438;2022-08-06T03:54:04;8.27;;;2.20;;
61104;SDS011;46987;32.638;-115.438;2022-08-06T03:56:33;8.85;;;2.50;;
61104;SDS011;46987;32.638;-115.438;2022-08-06T03:59:04;9.38;;;2.60;;
61104;SDS011;46987;32.638;-115.438;2022-08-06T04:01:36;7.85;;;2.15;;
61104;SDS011;46987;32.638;-115.438;2022-08-06T04:04:07;9.82;;;2.10;;
61104;SDS011;46987;32.638;-115.438;2022-08-06T04:06:37;10.25;;;2.78;;
61104;SDS011;46987;32.638;-115.438;2022-08-06T04:09:05;12.35;;;2.95;;
61104;SDS011;46987;32.638;-115.438;2022-08-06T04:11:33;12.45;;;2.88;;
61104;SDS011;46987;32.638;-115.438;2022-08-06T04:14:00;10.40;;;2.90;;
61104;SDS011;46987;32.638;-115.438;2022-08-06T04:16:28;12.70;;;3.25;;
61104;SDS011;46987;32.638;-115.438;2022-08-06T04:18:59;13.25;;;3.65;;
61104;SDS011;46987;32.638;-115.438;2022-08-06T04:21:28;14.27;;;3.85;;
61104;SDS011;46987;32.638;-115.438;2022-08-06T04:23:55;13.88;;;4.85;;
61104;SDS011;46987;32.638;-115.438;2022-08-06T04:26:23;16.15;;;4.10;;
61104;SDS011;46987;32.638;-115.438;2022-08-06T04:28:54;13.07;;;4.25;;
61104;SDS011;46987;32.638;-115.438;2022-08-06T04:31:22;12.35;;;3.65;;
61104;SDS011;46987;32.638;-115.438;2022-08-06T04:33:52;11.73;;;3.50;;
61104;SDS011;46987;32.638;-115.438;2022-08-06T04:36:23;12.43;;;3.35;;
61104;SDS011;46987;32.638;-115.438;2022-08-06T04:38:51;12.25;;;4.00;;
61104;SDS011;46987;32.638;-115.438;2022-08-06T04:41:21;11.75;;;3.42;;
61104;SDS011;46987;32.638;-115.438;2022-08-06T04:43:48;15.80;;;3.35;;
61104;SDS011;46987;32.638;-115.438;2022-08-06T04:46:16;15.50;;;4.47;;
61104;SDS011;46987;32.638;-115.438;2022-08-06T04:48:46;12.93;;;3.83;;
61104;SDS011;46987;32.638;-115.438;2022-08-06T04:51:14;13.55;;;4.25;;
61104;SDS011;46987;32.638;-115.438;2022-08-06T04:53:43;20.92;;;4.57;;
61104;SDS011;46987;32.638;-115.438;2022-08-06T04:56:10;15.25;;;4.57;;
61104;SDS011;46987;32.638;-115.438;2022-08-06T04:58:38;13.80;;;4.35;;
61104;SDS011;46987;32.638;-115.438;2022-08-06T05:01:05;15.18;;;4.10;;
61104;SDS011;46987;32.638;-115.438;2022-08-06T05:03:33;17.73;;;4.78;;
61104;SDS011;46987;32.638;-115.438;2022-08-06T05:06:03;15.52;;;5.00;;
61104;SDS011;46987;32.638;-115.438;2022-08-06T05:08:35;13.05;;;4.55;;
61104;SDS011;46987;32.638;-115.438;2022-08-06T05:11:08;23.70;;;9.00;;
61104;SDS011;46987;32.638;-115.438;2022-08-06T05:13:45;16.17;;;5.05;;
61104;SDS011;46987;32.638;-115.438;2022-08-06T05:16:16;18.08;;;6.60;;
61104;SDS011;46987;32.638;-115.438;2022-08-06T05:18:49;19.75;;;5.38;;
61104;SDS011;46987;32.638;-115.438;2022-08-06T05:21:21;16.47;;;5.83;;
61104;SDS011;46987;32.638;-115.438;2022-08-06T05:23:55;15.13;;;5.20;;
61104;SDS011;46987;32.638;-115.438;2022-08-06T05:26:25;22.17;;;5.43;;
61104;SDS011;46987;32.638;-115.438;2022-08-06T05:28:53;15.90;;;3.97;;
61104;SDS011;46987;32.638;-115.438;2022-08-06T05:31:28;13.02;;;3.63;;
61104;SDS011;46987;32.638;-115.438;2022-08-06T05:33:57;15.15;;;3.10;;
61104;SDS011;46987;32.638;-115.438;2022-08-06T05:36:24;10.90;;;3.00;;
61104;SDS011;46987;32.638;-115.438;2022-08-06T05:38:53;6.03;;;2.03;;
61104;SDS011;46987;32.638;-115.438;2022-08-06T05:41:23;10.02;;;2.38;;
61104;SDS011;46987;32.638;-115.438;2022-08-06T05:43:55;11.38;;;2.33;;
61104;SDS011;46987;32.638;-115.438;2022-08-06T05:46:25;10.52;;;2.35;;
61104;SDS011;46987;32.638;-115.438;2022-08-06T05:48:58;7.65;;;2.35;;
61104;SDS011;46987;32.638;-115.438;2022-08-06T05:51:33;9.73;;;2.30;;
61104;SDS011;46987;32.638;-115.438;2022-08-06T05:54:16;9.75;;;3.00;;
61104;SDS011;46987;32.638;-115.438;2022-08-06T05:56:51;8.88;;;3.03;;
61104;SDS011;46987;32.638;-115.438;2022-08-06T05:59:27;11.75;;;2.65;;
61104;SDS011;46987;32.638;-115.438;2022-08-06T06:01:56;7.45;;;2.33;;
61104;SDS011;46987;32.638;-115.438;2022-08-06T06:04:24;9.75;;;2.55;;
61104;SDS011;46987;32.638;-115.438;2022-08-06T06:06:53;7.57;;;2.67;;
61104;SDS011;46987;32.638;-115.438;2022-08-06T06:09:21;7.47;;;2.45;;
61104;SDS011;46987;32.638;-115.438;2022-08-06T06:11:51;9.23;;;2.10;;
61104;SDS011;46987;32.638;-115.438;2022-08-06T06:14:27;6.70;;;2.20;;
61104;SDS011;46987;32.638;-115.438;2022-08-06T06:17:04;9.30;;;2.53;;
61104;SDS011;46987;32.638;-115.438;2022-08-06T06:20:02;8.27;;;2.72;;
61104;SDS011;46987;32.638;-115.438;2022-08-06T06:22:38;7.88;;;2.58;;
61104;SDS011;46987;32.638;-115.438;2022-08-06T06:25:11;7.93;;;2.17;;
61104;SDS011;46987;32.638;-115.438;2022-08-06T06:27:44;10.30;;;2.83;;
61104;SDS011;46987;32.638;-115.438;2022-08-06T06:30:26;6.85;;;2.47;;
61104;SDS011;46987;32.638;-115.438;2022-08-06T06:33:01;10.77;;;2.13;;
61104;SDS011;46987;32.638;-115.438;2022-08-06T06:35:41;5.03;;;2.17;;
61104;SDS011;46987;32.638;-115.438;2022-08-06T06:38:17;9.75;;;2.90;;
61104;SDS011;46987;32.638;-115.438;2022-08-06T06:41:02;8.77;;;2.72;;
61104;SDS011;46987;32.638;-115.438;2022-08-06T06:43:39;8.90;;;2.55;;
61104;SDS011;46987;32.638;-115.438;2022-08-06T06:46:15;8.00;;;2.28;;
61104;SDS011;46987;32.638;-115.438;2022-08-06T06:48:49;7.53;;;2.47;;
61104;SDS011;46987;32.638;-115.438;2022-08-06T06:51:22;8.43;;;1.63;;
61104;SDS011;46987;32.638;-115.438;2022-08-06T06:53:54;8.35;;;2.22;;
61104;SDS011;46987;32.638;-115.438;2022-08-06T06:56:26;6.45;;;2.75;;
61104;SDS011;46987;32.638;-115.438;2022-08-06T06:59:00;6.38;;;2.35;;
61104;SDS011;46987;32.638;-115.438;2022-08-06T07:01:32;8.10;;;2.40;;
61104;SDS011;46987;32.638;-115.438;2022-08-06T07:04:10;7.57;;;2.70;;
61104;SDS011;46987;32.638;-115.438;2022-08-06T07:06:42;6.78;;;3.15;;
61104;SDS011;46987;32.638;-115.438;2022-08-06T07:09:14;6.57;;;2.35;;
61104;SDS011;46987;32.638;-115.438;2022-08-06T07:11:43;7.60;;;2.13;;
61104;SDS011;46987;32.638;-115.438;2022-08-06T07:14:13;7.68;;;2.55;;
61104;SDS011;46987;32.638;-115.438;2022-08-06T07:16:42;9.25;;;2.53;;
61104;SDS011;46987;32.638;-115.438;2022-08-06T07:19:11;9.98;;;2.55;;
61104;SDS011;46987;32.638;-115.438;2022-08-06T07:21:40;8.25;;;2.00;;
61104;SDS011;46987;32.638;-115.438;2022-08-06T07:24:09;7.13;;;2.08;;
61104;SDS011;46987;32.638;-115.438;2022-08-06T07:26:38;5.50;;;1.80;;
61104;SDS011;46987;32.638;-115.438;2022-08-06T07:29:07;11.05;;;2.53;;
61104;SDS011;46987;32.638;-115.438;2022-08-06T07:31:38;9.50;;;2.10;;
61104;SDS011;46987;32.638;-115.438;2022-08-06T07:36:44;5.60;;;2.17;;
61104;SDS011;46987;32.638;-115.438;2022-08-06T07:39:17;6.10;;;1.92;;
61104;SDS011;46987;32.638;-115.438;2022-08-06T07:41:48;7.80;;;1.80;;
61104;SDS011;46987;32.638;-115.438;2022-08-06T07:44:17;8.20;;;1.77;;
61104;SDS011;46987;32.638;-115.438;2022-08-06T07:46:52;5.35;;;2.00;;
61104;SDS011;46987;32.638;-115.438;2022-08-06T07:49:24;5.80;;;1.95;;
61104;SDS011;46987;32.638;-115.438;2022-08-06T07:51:55;6.68;;;2.30;;
61104;SDS011;46987;32.638;-115.438;2022-08-06T07:54:24;7.00;;;2.30;;
61104;SDS011;46987;32.638;-115.438;2022-08-06T07:56:56;4.95;;;1.95;;
61104;SDS011;46987;32.638;-115.438;2022-08-06T07:59:24;4.55;;;2.10;;
61104;SDS011;46987;32.638;-115.438;2022-08-06T08:01:54;8.80;;;2.17;;
61104;SDS011;46987;32.638;-115.438;2022-08-06T08:04:22;5.43;;;1.70;;
61104;SDS011;46987;32.638;-115.438;2022-08-06T08:07:08;6.85;;;1.92;;
61104;SDS011;46987;32.638;-115.438;2022-08-06T08:09:36;6.70;;;1.92;;
61104;SDS011;46987;32.638;-115.438;2022-08-06T08:12:05;7.55;;;1.50;;
61104;SDS011;46987;32.638;-115.438;2022-08-06T08:14:33;8.10;;;2.30;;
61104;SDS011;46987;32.638;-115.438;2022-08-06T08:17:03;5.75;;;1.92;;
61104;SDS011;46987;32.638;-115.438;2022-08-06T08:19:30;7.75;;;1.70;;
61104;SDS011;46987;32.638;-115.438;2022-08-06T08:21:59;4.45;;;1.52;;
61104;SDS011;46987;32.638;-115.438;2022-08-06T08:24:28;5.28;;;1.88;;
61104;SDS011;46987;32.638;-115.438;2022-08-06T08:26:58;5.90;;;2.08;;
61104;SDS011;46987;32.638;-115.438;2022-08-06T08:29:26;7.45;;;1.83;;
61104;SDS011;46987;32.638;-115.438;2022-08-06T08:31:53;8.98;;;2.45;;
61104;SDS011;46987;32.638;-115.438;2022-08-06T08:34:23;9.65;;;2.05;;
61104;SDS011;46987;32.638;-115.438;2022-08-06T08:36:50;9.73;;;2.47;;
61104;SDS011;46987;32.638;-115.438;2022-08-06T08:39:17;8.52;;;1.85;;
61104;SDS011;46987;32.638;-115.438;2022-08-06T08:41:46;7.82;;;2.10;;
61104;SDS011;46987;32.638;-115.438;2022-08-06T08:46:47;10.93;;;2.45;;
61104;SDS011;46987;32.638;-115.438;2022-08-06T08:49:17;8.65;;;2.20;;
61104;SDS011;46987;32.638;-115.438;2022-08-06T08:51:47;11.40;;;2.22;;
61104;SDS011;46987;32.638;-115.438;2022-08-06T08:54:17;7.55;;;1.90;;
61104;SDS011;46987;32.638;-115.438;2022-08-06T08:56:47;7.70;;;2.40;;
61104;SDS011;46987;32.638;-115.438;2022-08-06T08:59:15;7.00;;;1.75;;
61104;SDS011;46987;32.638;-115.438;2022-08-06T09:01:44;8.55;;;1.92;;
61104;SDS011;46987;32.638;-115.438;2022-08-06T09:04:12;5.20;;;1.50;;
61104;SDS011;46987;32.638;-115.438;2022-08-06T09:06:40;5.75;;;1.52;;
61104;SDS011;46987;32.638;-115.438;2022-08-06T09:09:09;6.85;;;1.90;;
61104;SDS011;46987;32.638;-115.438;2022-08-06T09:11:37;5.47;;;1.55;;
61104;SDS011;46987;32.638;-115.438;2022-08-06T09:14:06;7.50;;;1.73;;
61104;SDS011;46987;32.638;-115.438;2022-08-06T09:16:34;9.43;;;1.73;;
61104;SDS011;46987;32.638;-115.438;2022-08-06T09:19:03;6.20;;;1.60;;
61104;SDS011;46987;32.638;-115.438;2022-08-06T09:21:32;5.88;;;1.45;;
61104;SDS011;46987;32.638;-115.438;2022-08-06T09:23:59;7.05;;;1.52;;
61104;SDS011;46987;32.638;-115.438;2022-08-06T09:26:29;6.25;;;1.77;;
61104;SDS011;46987;32.638;-115.438;2022-08-06T09:28:59;7.45;;;1.67;;
61104;SDS011;46987;32.638;-115.438;2022-08-06T09:31:26;9.75;;;1.73;;
61104;SDS011;46987;32.638;-115.438;2022-08-06T09:33:56;7.88;;;2.00;;
61104;SDS011;46987;32.638;-115.438;2022-08-06T09:36:24;7.43;;;1.70;;
61104;SDS011;46987;32.638;-115.438;2022-08-06T09:38:52;6.90;;;1.77;;
61104;SDS011;46987;32.638;-115.438;2022-08-06T09:41:21;7.53;;;1.73;;
61104;SDS011;46987;32.638;-115.438;2022-08-06T09:43:52;5.75;;;1.50;;
61104;SDS011;46987;32.638;-115.438;2022-08-06T09:46:34;4.50;;;1.52;;
61104;SDS011;46987;32.638;-115.438;2022-08-06T09:49:03;9.40;;;1.90;;
61104;SDS011;46987;32.638;-115.438;2022-08-06T09:51:31;6.55;;;1.50;;
61104;SDS011;46987;32.638;-115.438;2022-08-06T09:54:01;6.43;;;1.77;;
61104;SDS011;46987;32.638;-115.438;2022-08-06T09:56:29;3.53;;;1.48;;
61104;SDS011;46987;32.638;-115.438;2022-08-06T09:58:58;6.00;;;1.73;;
61104;SDS011;46987;32.638;-115.438;2022-08-06T10:01:26;5.53;;;1.50;;
61104;SDS011;46987;32.638;-115.438;2022-08-06T10:03:56;5.43;;;1.88;;
61104;SDS011;46987;32.638;-115.438;2022-08-06T10:06:24;5.22;;;1.50;;
61104;SDS011;46987;32.638;-115.438;2022-08-06T10:09:04;5.10;;;1.75;;
61104;SDS011;46987;32.638;-115.438;2022-08-06T10:11:35;6.43;;;2.03;;
61104;SDS011;46987;32.638;-115.438;2022-08-06T10:14:05;9.30;;;2.00;;
61104;SDS011;46987;32.638;-115.438;2022-08-06T10:16:59;5.00;;;1.80;;
61104;SDS011;46987;32.638;-115.438;2022-08-06T10:19:30;4.93;;;1.67;;
61104;SDS011;46987;32.638;-115.438;2022-08-06T10:22:02;4.10;;;1.42;;
61104;SDS011;46987;32.638;-115.438;2022-08-06T10:24:35;6.43;;;1.65;;
61104;SDS011;46987;32.638;-115.438;2022-08-06T10:27:05;4.75;;;1.58;;
61104;SDS011;46987;32.638;-115.438;2022-08-06T10:29:38;4.65;;;1.48;;
61104;SDS011;46987;32.638;-115.438;2022-08-06T10:32:07;6.20;;;1.50;;
61104;SDS011;46987;32.638;-115.438;2022-08-06T10:34:40;5.68;;;1.65;;
61104;SDS011;46987;32.638;-115.438;2022-08-06T10:37:11;5.90;;;1.63;;
61104;SDS011;46987;32.638;-115.438;2022-08-06T10:39:40;9.27;;;1.92;;
61104;SDS011;46987;32.638;-115.438;2022-08-06T10:42:13;7.85;;;1.70;;
61104;SDS011;46987;32.638;-115.438;2022-08-06T10:44:43;5.43;;;1.85;;
61104;SDS011;46987;32.638;-115.438;2022-08-06T10:47:11;4.43;;;1.52;;
61104;SDS011;46987;32.638;-115.438;2022-08-06T10:49:39;7.95;;;1.75;;
61104;SDS011;46987;32.638;-115.438;2022-08-06T10:52:07;5.70;;;1.98;;
61104;SDS011;46987;32.638;-115.438;2022-08-06T10:54:37;7.80;;;2.00;;
61104;SDS011;46987;32.638;-115.438;2022-08-06T10:57:06;5.18;;;1.77;;
61104;SDS011;46987;32.638;-115.438;2022-08-06T10:59:34;7.75;;;1.90;;
61104;SDS011;46987;32.638;-115.438;2022-08-06T11:02:03;6.05;;;1.85;;
61104;SDS011;46987;32.638;-115.438;2022-08-06T11:04:40;4.72;;;1.60;;
61104;SDS011;46987;32.638;-115.438;2022-08-06T11:10:29;7.55;;;1.90;;
61104;SDS011;46987;32.638;-115.438;2022-08-06T11:13:24;4.50;;;1.50;;
61104;SDS011;46987;32.638;-115.438;2022-08-06T11:15:55;5.55;;;1.80;;
61104;SDS011;46987;32.638;-115.438;2022-08-06T11:18:24;4.80;;;1.50;;
61104;SDS011;46987;32.638;-115.438;2022-08-06T11:20:52;5.07;;;1.92;;
61104;SDS011;46987;32.638;-115.438;2022-08-06T11:23:24;5.20;;;2.00;;
61104;SDS011;46987;32.638;-115.438;2022-08-06T11:25:59;8.75;;;1.90;;
61104;SDS011;46987;32.638;-115.438;2022-08-06T11:34:19;5.97;;;2.03;;
61104;SDS011;46987;32.638;-115.438;2022-08-06T11:36:48;7.68;;;2.17;;
61104;SDS011;46987;32.638;-115.438;2022-08-06T11:39:21;4.85;;;1.58;;
61104;SDS011;46987;32.638;-115.438;2022-08-06T11:41:53;10.27;;;1.90;;
61104;SDS011;46987;32.638;-115.438;2022-08-06T11:44:22;5.50;;;1.60;;
61104;SDS011;46987;32.638;-115.438;2022-08-06T11:47:06;5.28;;;1.95;;
61104;SDS011;46987;32.638;-115.438;2022-08-06T11:49:39;5.53;;;1.58;;
61104;SDS011;46987;32.638;-115.438;2022-08-06T11:52:08;5.82;;;1.85;;
61104;SDS011;46987;32.638;-115.438;2022-08-06T11:54:35;9.23;;;2.20;;
61104;SDS011;46987;32.638;-115.438;2022-08-06T11:57:24;9.05;;;2.20;;
61104;SDS011;46987;32.638;-115.438;2022-08-06T12:00:02;6.65;;;2.20;;
61104;SDS011;46987;32.638;-115.438;2022-08-06T12:02:55;5.45;;;1.80;;
61104;SDS011;46987;32.638;-115.438;2022-08-06T12:05:39;6.57;;;1.65;;
61104;SDS011;46987;32.638;-115.438;2022-08-06T12:08:15;9.75;;;2.00;;
61104;SDS011;46987;32.638;-115.438;2022-08-06T12:13:50;6.93;;;1.90;;
61104;SDS011;46987;32.638;-115.438;2022-08-06T12:16:27;7.07;;;1.83;;
61104;SDS011;46987;32.638;-115.438;2022-08-06T12:18:55;4.35;;;1.80;;
61104;SDS011;46987;32.638;-115.438;2022-08-06T12:21:25;6.93;;;1.88;;
61104;SDS011;46987;32.638;-115.438;2022-08-06T12:23:54;8.15;;;1.90;;
61104;SDS011;46987;32.638;-115.438;2022-08-06T12:26:22;8.50;;;2.40;;
61104;SDS011;46987;32.638;-115.438;2022-08-06T12:28:50;8.63;;;2.17;;
61104;SDS011;46987;32.638;-115.438;2022-08-06T12:31:30;8.23;;;2.00;;
61104;SDS011;46987;32.638;-115.438;2022-08-06T12:33:59;6.50;;;2.10;;
61104;SDS011;46987;32.638;-115.438;2022-08-06T12:36:32;6.82;;;1.95;;
61104;SDS011;46987;32.638;-115.438;2022-08-06T12:39:01;8.32;;;2.20;;
61104;SDS011;46987;32.638;-115.438;2022-08-06T12:44:04;8.73;;;2.28;;
61104;SDS011;46987;32.638;-115.438;2022-08-06T12:46:31;6.85;;;2.30;;
61104;SDS011;46987;32.638;-115.438;2022-08-06T12:48:59;10.05;;;2.83;;
61104;SDS011;46987;32.638;-115.438;2022-08-06T12:51:27;11.80;;;2.90;;
61104;SDS011;46987;32.638;-115.438;2022-08-06T12:53:57;9.63;;;2.17;;
61104;SDS011;46987;32.638;-115.438;2022-08-06T12:56:27;7.63;;;2.10;;
61104;SDS011;46987;32.638;-115.438;2022-08-06T12:58:56;6.40;;;2.17;;
61104;SDS011;46987;32.638;-115.438;2022-08-06T13:01:26;7.68;;;1.73;;
61104;SDS011;46987;32.638;-115.438;2022-08-06T13:03:55;10.52;;;2.40;;
61104;SDS011;46987;32.638;-115.438;2022-08-06T13:06:26;11.93;;;2.08;;
61104;SDS011;46987;32.638;-115.438;2022-08-06T13:08:56;8.23;;;2.30;;
61104;SDS011;46987;32.638;-115.438;2022-08-06T13:11:30;8.60;;;2.20;;
61104;SDS011;46987;32.638;-115.438;2022-08-06T13:13:58;11.55;;;2.70;;
61104;SDS011;46987;32.638;-115.438;2022-08-06T13:16:37;6.28;;;2.20;;
61104;SDS011;46987;32.638;-115.438;2022-08-06T13:19:08;8.88;;;1.75;;
61104;SDS011;46987;32.638;-115.438;2022-08-06T13:21:37;6.95;;;2.45;;
61104;SDS011;46987;32.638;-115.438;2022-08-06T13:24:07;10.63;;;2.08;;
61104;SDS011;46987;32.638;-115.438;2022-08-06T13:26:50;7.20;;;2.30;;
61104;SDS011;46987;32.638;-115.438;2022-08-06T13:29:18;8.15;;;2.35;;
61104;SDS011;46987;32.638;-115.438;2022-08-06T13:31:57;5.32;;;1.90;;
61104;SDS011;46987;32.638;-115.438;2022-08-06T13:34:26;9.07;;;2.30;;
61104;SDS011;46987;32.638;-115.438;2022-08-06T13:36:54;8.23;;;2.40;;
61104;SDS011;46987;32.638;-115.438;2022-08-06T13:39:26;6.72;;;1.95;;
61104;SDS011;46987;32.638;-115.438;2022-08-06T13:42:00;4.55;;;2.03;;
61104;SDS011;46987;32.638;-115.438;2022-08-06T13:44:29;8.98;;;2.35;;
61104;SDS011;46987;32.638;-115.438;2022-08-06T13:46:58;5.38;;;2.08;;
61104;SDS011;46987;32.638;-115.438;2022-08-06T13:49:26;6.95;;;2.08;;
61104;SDS011;46987;32.638;-115.438;2022-08-06T13:51:53;9.10;;;1.90;;
61104;SDS011;46987;32.638;-115.438;2022-08-06T13:54:21;6.05;;;1.90;;
61104;SDS011;46987;32.638;-115.438;2022-08-06T13:56:51;7.63;;;2.28;;
61104;SDS011;46987;32.638;-115.438;2022-08-06T13:59:19;7.10;;;2.17;;
61104;SDS011;46987;32.638;-115.438;2022-08-06T14:01:47;6.25;;;1.83;;
61104;SDS011;46987;32.638;-115.438;2022-08-06T14:04:15;6.68;;;2.17;;
61104;SDS011;46987;32.638;-115.438;2022-08-06T14:06:45;6.63;;;1.92;;
61104;SDS011;46987;32.638;-115.438;2022-08-06T14:09:13;10.25;;;2.92;;
61104;SDS011;46987;32.638;-115.438;2022-08-06T14:11:42;8.05;;;2.83;;
61104;SDS011;46987;32.638;-115.438;2022-08-06T14:14:11;8.63;;;2.35;;
61104;SDS011;46987;32.638;-115.438;2022-08-06T14:16:39;9.02;;;2.20;;
61104;SDS011;46987;32.638;-115.438;2022-08-06T14:19:06;13.32;;;2.30;;
61104;SDS011;46987;32.638;-115.438;2022-08-06T14:21:33;11.52;;;2.25;;
61104;SDS011;46987;32.638;-115.438;2022-08-06T14:24:01;10.40;;;2.15;;
61104;SDS011;46987;32.638;-115.438;2022-08-06T14:26:28;6.93;;;2.22;;
61104;SDS011;46987;32.638;-115.438;2022-08-06T14:28:56;11.25;;;2.63;;
61104;SDS011;46987;32.638;-115.438;2022-08-06T14:31:26;9.27;;;2.00;;
61104;SDS011;46987;32.638;-115.438;2022-08-06T14:33:53;7.88;;;2.05;;
61104;SDS011;46987;32.638;-115.438;2022-08-06T14:36:20;6.40;;;2.08;;
61104;SDS011;46987;32.638;-115.438;2022-08-06T14:38:48;7.63;;;1.80;;
61104;SDS011;46987;32.638;-115.438;2022-08-06T14:41:15;7.28;;;2.30;;
61104;SDS011;46987;32.638;-115.438;2022-08-06T14:44:00;11.38;;;2.97;;
61104;SDS011;46987;32.638;-115.438;2022-08-06T14:46:47;8.65;;;2.53;;
61104;SDS011;46987;32.638;-115.438;2022-08-06T14:49:15;5.90;;;1.90;;
61104;SDS011;46987;32.638;-115.438;2022-08-06T14:51:42;6.93;;;1.58;;
61104;SDS011;46987;32.638;-115.438;2022-08-06T14:54:09;8.88;;;2.70;;
61104;SDS011;46987;32.638;-115.438;2022-08-06T14:56:37;10.05;;;2.72;;
61104;SDS011;46987;32.638;-115.438;2022-08-06T14:59:04;6.50;;;2.15;;